Time;durP1;ratioP1;P1;durP2;ratioP2;P2;SDS_P1;SDS_P2;PMS_P1;PMS_P2;Temp;Humidity;BMP_temperature;BMP_pressure;BME280_temperature;BME280_humidity;BME280_pressure;Samples;Min_cycle;Max_cycle;Signal;HPM_P1;HPM_P2
2022/11/11 00:00:01;;;;;;;8.13;3.80;;;12.50;99.90;;;;;;5053212;28;20739;-55
2022/11/11 00:02:48;;;;;;;11.13;4.20;;;12.40;99.90;;;;;;5052671;28;20231;-56
2022/11/11 00:05:35;;;;;;;6.80;3.27;;;12.40;99.90;;;;;;5041324;28;20731;-55
2022/11/11 00:08:23;;;;;;;7.63;3.90;;;12.50;99.90;;;;;;5040017;28;20304;-56
2022/11/11 00:11:11;;;;;;;9.03;3.93;;;12.50;99.90;;;;;;5053092;28;20225;-55
2022/11/11 00:13:58;;;;;;;6.63;3.53;;;12.50;99.90;;;;;;5042638;28;20237;-54
2022/11/11 00:26:00;;;;;;;10.27;4.60;;;12.50;99.90;;;;;;5032816;28;20233;-56
2022/11/11 00:29:07;;;;;;;9.93;4.30;;;12.50;99.90;;;;;;5051436;28;20230;-55
2022/11/11 00:38:08;;;;;;;9.10;4.40;;;12.50;99.90;;;;;;5044371;28;20735;-55
2022/11/11 00:40:55;;;;;;;7.27;4.27;;;12.50;99.90;;;;;;5051839;28;20797;-55
2022/11/11 00:43:44;;;;;;;8.40;4.67;;;12.50;99.90;;;;;;5044705;28;20229;-55
2022/11/11 00:52:54;;;;;;;8.20;4.23;;;12.50;99.90;;;;;;4991333;28;20247;-56
2022/11/11 00:55:41;;;;;;;12.87;5.10;;;12.50;99.90;;;;;;4994822;28;20724;-56
2022/11/11 00:58:28;;;;;;;9.43;4.50;;;12.50;99.90;;;;;;5040363;28;20240;-56
2022/11/11 01:01:17;;;;;;;12.57;4.80;;;12.50;99.90;;;;;;5055964;28;20760;-55
2022/11/11 01:04:05;;;;;;;10.60;4.23;;;12.50;99.90;;;;;;5056396;28;20249;-55
2022/11/11 01:06:51;;;;;;;6.67;4.30;;;12.50;99.90;;;;;;5048482;28;20241;-56
2022/11/11 01:09:38;;;;;;;9.17;4.20;;;12.50;99.90;;;;;;5056170;28;20323;-56
2022/11/11 01:12:25;;;;;;;10.93;4.50;;;12.50;99.90;;;;;;5056259;28;20230;-56
2022/11/11 01:15:12;;;;;;;8.50;5.00;;;12.50;99.90;;;;;;5028575;28;20235;-55
2022/11/11 01:18:00;;;;;;;7.30;3.97;;;12.50;99.90;;;;;;5043524;28;20229;-55
2022/11/11 01:20:47;;;;;;;8.60;4.37;;;12.50;99.90;;;;;;5035737;28;20726;-55
2022/11/11 01:23:37;;;;;;;8.90;4.40;;;12.50;99.90;;;;;;5035762;28;20240;-55
2022/11/11 01:26:27;;;;;;;10.90;4.80;;;12.50;99.90;;;;;;5036366;28;20229;-55
2022/11/11 01:29:17;;;;;;;8.63;4.50;;;12.50;99.90;;;;;;5016061;28;20374;-56
2022/11/11 01:32:04;;;;;;;12.60;4.80;;;12.50;99.90;;;;;;5015748;28;20249;-56
2022/11/11 01:34:52;;;;;;;9.87;4.27;;;12.50;99.90;;;;;;5030327;28;20690;-56
2022/11/11 01:37:40;;;;;;;9.67;5.13;;;12.50;99.90;;;;;;5047387;28;20272;-55
2022/11/11 01:40:27;;;;;;;8.87;4.77;;;12.40;99.90;;;;;;5055624;28;20295;-56
2022/11/11 01:43:18;;;;;;;12.17;5.20;;;12.50;99.90;;;;;;5051668;28;20254;-55
2022/11/11 01:46:15;;;;;;;7.37;5.10;;;12.50;99.90;;;;;;5035740;28;20242;-56
2022/11/11 01:49:23;;;;;;;8.63;4.90;;;12.50;99.90;;;;;;5035388;28;20745;-56
2022/11/11 01:52:17;;;;;;;8.33;4.73;;;12.50;99.90;;;;;;5015423;28;20245;-54
2022/11/11 01:55:07;;;;;;;7.07;4.70;;;12.50;99.90;;;;;;5024257;28;20227;-56
2022/11/11 01:57:57;;;;;;;8.63;5.03;;;12.50;99.90;;;;;;5046382;28;20311;-55
2022/11/11 02:00:44;;;;;;;8.50;5.00;;;12.50;99.90;;;;;;5054637;28;20240;-55
2022/11/11 02:03:35;;;;;;;10.17;5.40;;;12.50;99.90;;;;;;5054795;28;20249;-55
2022/11/11 02:06:21;;;;;;;12.30;4.70;;;12.50;99.90;;;;;;5048798;28;20262;-55
2022/11/11 02:09:11;;;;;;;11.77;5.03;;;12.50;99.90;;;;;;5054977;28;20296;-56
2022/11/11 02:15:08;;;;;;;9.57;4.43;;;12.50;99.90;;;;;;5034996;28;20622;-54
2022/11/11 02:17:56;;;;;;;8.33;5.17;;;12.40;99.90;;;;;;5042474;28;20304;-55
2022/11/11 02:20:44;;;;;;;10.93;4.50;;;12.40;99.90;;;;;;5034783;28;20737;-55
2022/11/11 02:23:37;;;;;;;8.67;4.80;;;12.40;99.90;;;;;;5034745;28;20230;-56
2022/11/11 02:26:27;;;;;;;9.57;4.30;;;12.40;99.90;;;;;;5035715;28;20281;-55
2022/11/11 02:29:17;;;;;;;8.90;4.63;;;12.30;99.90;;;;;;5055249;28;20226;-56
2022/11/11 02:32:04;;;;;;;8.77;4.37;;;12.30;99.90;;;;;;5054234;28;20648;-56
2022/11/11 02:34:51;;;;;;;7.93;4.37;;;12.30;99.90;;;;;;5054760;28;20233;-56
2022/11/11 02:37:38;;;;;;;9.43;4.50;;;12.30;99.90;;;;;;5046238;28;20241;-56
2022/11/11 02:40:29;;;;;;;7.70;4.67;;;12.30;99.90;;;;;;5054807;28;20314;-56
2022/11/11 02:43:17;;;;;;;10.47;5.00;;;12.20;99.90;;;;;;5039729;28;20722;-56
2022/11/11 02:46:06;;;;;;;6.67;4.53;;;12.20;99.90;;;;;;5034315;28;20717;-56
2022/11/11 02:48:53;;;;;;;10.00;4.87;;;12.20;99.90;;;;;;5034110;28;20256;-55
2022/11/11 02:51:40;;;;;;;9.40;4.57;;;12.30;99.90;;;;;;5042798;28;20233;-55
2022/11/11 02:54:27;;;;;;;9.77;4.97;;;12.20;99.90;;;;;;5054084;28;20295;-56
2022/11/11 02:57:14;;;;;;;10.03;5.17;;;12.20;99.90;;;;;;5053978;28;20244;-55
2022/11/11 03:00:22;;;;;;;11.23;4.70;;;12.20;99.90;;;;;;5054237;28;20643;-56
2022/11/11 03:03:09;;;;;;;9.93;4.90;;;12.20;99.90;;;;;;5031621;28;20666;-55
2022/11/11 03:05:56;;;;;;;10.87;4.77;;;12.10;99.90;;;;;;5032004;28;20249;-55
2022/11/11 03:08:42;;;;;;;8.00;5.07;;;12.10;99.90;;;;;;5031786;28;20246;-55
2022/11/11 03:11:29;;;;;;;9.57;5.07;;;12.20;99.90;;;;;;5029775;28;20237;-56
2022/11/11 03:14:15;;;;;;;7.70;4.47;;;12.10;99.90;;;;;;5012663;28;20238;-56
2022/11/11 03:23:16;;;;;;;7.80;4.57;;;12.00;99.90;;;;;;5033975;28;20225;-56
2022/11/11 03:26:02;;;;;;;8.60;4.57;;;12.00;99.90;;;;;;5033840;28;20247;-56
2022/11/11 03:28:49;;;;;;;10.00;5.40;;;12.00;99.90;;;;;;5034002;28;20230;-56
2022/11/11 03:31:36;;;;;;;10.17;4.67;;;12.00;99.90;;;;;;5044653;28;20250;-55
2022/11/11 03:34:24;;;;;;;10.43;5.63;;;11.90;99.90;;;;;;5053513;28;20292;-55
2022/11/11 03:40:16;;;;;;;9.07;4.87;;;11.90;99.90;;;;;;5053572;28;20263;-55
2022/11/11 03:43:03;;;;;;;8.90;5.60;;;11.90;99.90;;;;;;5056886;28;20325;-55
2022/11/11 03:45:51;;;;;;;11.30;5.30;;;11.90;99.90;;;;;;5054309;28;20732;-55
2022/11/11 03:48:37;;;;;;;9.93;5.27;;;11.90;99.90;;;;;;5060478;28;20302;-56
2022/11/11 03:51:25;;;;;;;10.67;5.60;;;11.90;99.90;;;;;;5047209;28;20241;-54
2022/11/11 03:54:12;;;;;;;9.67;5.50;;;11.80;99.90;;;;;;5053313;28;20259;-56
2022/11/11 04:00:00;;;;;;;12.83;6.17;;;11.80;99.90;;;;;;5053167;28;20352;-56
2022/11/11 04:12:00;;;;;;;9.60;6.07;;;11.80;99.90;;;;;;5057010;28;20588;-55
2022/11/11 04:17:51;;;;;;;10.47;5.90;;;11.80;99.90;;;;;;5041404;28;20231;-55
2022/11/11 04:23:46;;;;;;;11.77;6.50;;;11.70;99.90;;;;;;5035326;28;20247;-55
2022/11/11 04:26:33;;;;;;;8.63;6.10;;;11.70;99.90;;;;;;5052805;28;20263;-55
2022/11/11 04:29:29;;;;;;;9.50;6.43;;;11.70;99.90;;;;;;5052557;28;20227;-55
2022/11/11 04:32:37;;;;;;;10.37;6.40;;;11.70;99.90;;;;;;5052411;28;20251;-55
2022/11/11 04:35:25;;;;;;;10.87;6.73;;;11.70;99.90;;;;;;5053201;28;20232;-55
2022/11/11 04:41:16;;;;;;;12.03;6.30;;;11.60;99.90;;;;;;5052901;28;20232;-56
2022/11/11 04:47:09;;;;;;;10.13;6.00;;;11.60;99.90;;;;;;5037656;28;20245;-56
2022/11/11 04:49:55;;;;;;;12.43;6.17;;;11.60;99.90;;;;;;5054349;28;20232;-55
2022/11/11 04:52:43;;;;;;;10.30;6.13;;;11.60;99.90;;;;;;5054930;28;20229;-56
2022/11/11 04:58:35;;;;;;;11.30;6.87;;;11.60;99.90;;;;;;5052601;28;20290;-55
2022/11/11 05:04:23;;;;;;;10.97;6.40;;;11.50;99.90;;;;;;5052294;28;20321;-55
2022/11/11 05:10:14;;;;;;;11.57;6.57;;;11.50;99.90;;;;;;5052703;28;20311;-55
2022/11/11 05:22:25;;;;;;;11.00;6.03;;;11.50;99.90;;;;;;5040762;28;20232;-55
2022/11/11 05:25:24;;;;;;;7.73;6.17;;;11.50;99.90;;;;;;5049254;28;20326;-55
2022/11/11 05:28:10;;;;;;;11.40;5.63;;;11.50;99.90;;;;;;5050159;28;20944;-55
2022/11/11 05:30:57;;;;;;;9.97;6.20;;;11.40;99.90;;;;;;5052029;28;20243;-54
2022/11/11 05:33:43;;;;;;;12.40;6.23;;;11.40;99.90;;;;;;5051869;28;20241;-55
2022/11/11 05:36:31;;;;;;;8.97;6.90;;;11.40;99.90;;;;;;5052095;28;20234;-56
2022/11/11 05:39:18;;;;;;;12.33;6.30;;;11.40;99.90;;;;;;5051910;28;20232;-56
2022/11/11 05:42:04;;;;;;;13.40;6.53;;;11.40;99.90;;;;;;5054540;28;20364;-55
2022/11/11 05:44:51;;;;;;;8.90;6.20;;;11.40;99.90;;;;;;5055660;28;20229;-55
2022/11/11 05:47:37;;;;;;;10.97;7.47;;;11.40;99.90;;;;;;5062247;28;20238;-56
2022/11/11 05:50:24;;;;;;;12.17;6.77;;;11.40;99.90;;;;;;5049261;28;20757;-55
2022/11/11 05:53:12;;;;;;;11.70;7.07;;;11.30;99.90;;;;;;5055567;28;20231;-55
2022/11/11 05:55:58;;;;;;;9.43;6.37;;;11.30;99.90;;;;;;5053920;28;20228;-56
2022/11/11 05:58:44;;;;;;;12.10;6.90;;;11.30;99.90;;;;;;5062212;28;20361;-55
2022/11/11 06:01:37;;;;;;;11.73;7.43;;;11.30;99.90;;;;;;5057701;28;20375;-55
2022/11/11 06:04:24;;;;;;;9.53;7.13;;;11.30;99.90;;;;;;5055430;28;20271;-55
2022/11/11 06:07:11;;;;;;;10.17;6.67;;;11.30;99.90;;;;;;5055743;28;20240;-56
2022/11/11 06:10:29;;;;;;;13.53;7.63;;;11.30;99.90;;;;;;5055640;28;20247;-56
2022/11/11 06:13:08;;;;;;;11.10;7.33;;;11.30;99.90;;;;;;5058702;28;20323;-54
2022/11/11 06:15:57;;;;;;;12.23;8.13;;;11.30;99.90;;;;;;5054971;28;20240;-55
2022/11/11 06:18:43;;;;;;;14.90;7.80;;;11.30;99.90;;;;;;5062069;28;20240;-55
2022/11/11 06:21:31;;;;;;;16.27;8.17;;;11.20;99.90;;;;;;5058385;28;20240;-55
2022/11/11 06:24:18;;;;;;;12.27;8.20;;;11.20;99.90;;;;;;5060981;28;20221;-54
2022/11/11 06:27:13;;;;;;;12.17;8.30;;;11.20;99.90;;;;;;5055277;28;20231;-54
2022/11/11 06:29:59;;;;;;;11.80;8.27;;;11.20;99.90;;;;;;5055206;28;20227;-55
2022/11/11 06:33:06;;;;;;;13.83;9.07;;;11.20;99.90;;;;;;5054718;28;20241;-55
2022/11/11 06:35:53;;;;;;;11.23;8.90;;;11.20;99.90;;;;;;5060602;28;20289;-55
2022/11/11 06:38:41;;;;;;;13.77;8.90;;;11.10;99.90;;;;;;5074284;28;20228;-54
2022/11/11 06:41:28;;;;;;;13.47;9.33;;;11.10;99.90;;;;;;5067676;28;20228;-56
2022/11/11 06:44:15;;;;;;;13.40;9.60;;;11.20;99.90;;;;;;5062145;28;20796;-55
2022/11/11 06:47:02;;;;;;;16.93;10.13;;;11.10;99.90;;;;;;5057008;28;20224;-55
2022/11/11 06:49:48;;;;;;;13.17;9.77;;;11.20;99.90;;;;;;5058041;28;20584;-55
2022/11/11 06:52:35;;;;;;;17.83;10.60;;;11.20;99.90;;;;;;5061955;28;20244;-56
2022/11/11 06:55:21;;;;;;;13.93;9.97;;;11.20;99.90;;;;;;5050975;28;20308;-55
2022/11/11 06:58:09;;;;;;;16.23;10.67;;;11.20;99.90;;;;;;5058917;28;20787;-56
2022/11/11 07:00:57;;;;;;;15.70;11.37;;;11.10;99.90;;;;;;5054388;28;20239;-55
2022/11/11 07:03:44;;;;;;;20.07;11.57;;;11.10;99.90;;;;;;5059074;28;20248;-56
2022/11/11 07:06:30;;;;;;;19.03;10.43;;;11.10;99.90;;;;;;5053786;28;20268;-55
2022/11/11 07:09:17;;;;;;;15.87;11.87;;;11.10;99.90;;;;;;5053968;28;20248;-55
2022/11/11 07:12:05;;;;;;;19.07;12.13;;;11.10;99.90;;;;;;5054261;28;20246;-55
2022/11/11 07:14:52;;;;;;;16.67;12.03;;;11.10;99.90;;;;;;5058857;28;20722;-54
2022/11/11 07:17:40;;;;;;;18.53;12.20;;;11.10;99.90;;;;;;5060385;28;20226;-55
2022/11/11 07:20:27;;;;;;;16.40;11.60;;;11.10;99.90;;;;;;5047451;28;20235;-55
2022/11/11 07:23:14;;;;;;;22.03;12.23;;;11.10;99.90;;;;;;5059901;28;20239;-56
2022/11/11 07:26:01;;;;;;;18.27;12.33;;;11.10;99.90;;;;;;5055311;28;20588;-56
2022/11/11 07:28:49;;;;;;;18.33;12.57;;;11.10;99.90;;;;;;5052880;28;20327;-54
2022/11/11 07:31:36;;;;;;;20.20;12.57;;;11.00;99.90;;;;;;5052707;28;20318;-55
2022/11/11 07:34:24;;;;;;;20.03;13.27;;;11.10;99.90;;;;;;5049508;28;20287;-55
2022/11/11 07:37:11;;;;;;;18.53;13.13;;;11.10;99.90;;;;;;5058443;28;20252;-55
2022/11/11 07:39:57;;;;;;;16.60;12.87;;;11.10;99.90;;;;;;5053268;28;20243;-56
2022/11/11 07:42:44;;;;;;;18.07;13.07;;;11.10;99.90;;;;;;5063580;28;20238;-56
2022/11/11 07:45:30;;;;;;;17.87;13.37;;;11.00;99.90;;;;;;5052060;28;20596;-56
2022/11/11 07:48:17;;;;;;;20.23;13.47;;;11.10;99.90;;;;;;5058851;28;20258;-55
2022/11/11 07:51:05;;;;;;;19.77;13.40;;;11.10;99.90;;;;;;5056366;28;20232;-55
2022/11/11 07:53:51;;;;;;;18.00;13.37;;;11.10;99.90;;;;;;5055341;28;20240;-55
2022/11/11 07:56:38;;;;;;;18.93;13.47;;;11.10;99.90;;;;;;5055588;28;20240;-55
2022/11/11 07:59:24;;;;;;;21.03;13.47;;;11.10;99.90;;;;;;5056255;28;20250;-56
2022/11/11 08:02:11;;;;;;;19.03;13.17;;;11.10;99.90;;;;;;5052476;28;20246;-56
2022/11/11 08:04:58;;;;;;;19.47;14.13;;;11.10;99.90;;;;;;5052020;28;20723;-56
2022/11/11 08:07:46;;;;;;;22.87;13.97;;;11.10;99.90;;;;;;5055631;28;20240;-56
2022/11/11 08:10:33;;;;;;;21.60;13.77;;;11.10;99.90;;;;;;5051386;28;20734;-55
2022/11/11 08:16:23;;;;;;;19.47;15.17;;;11.20;99.90;;;;;;5050306;28;20240;-55
2022/11/11 08:19:10;;;;;;;22.43;13.20;;;11.20;99.90;;;;;;5049442;28;20231;-55
2022/11/11 08:21:56;;;;;;;24.60;15.57;;;11.20;99.90;;;;;;5053461;28;20775;-55
2022/11/11 08:24:44;;;;;;;19.70;14.00;;;11.20;99.90;;;;;;5053163;28;20246;-55
2022/11/11 08:27:57;;;;;;;25.50;16.43;;;11.20;99.90;;;;;;5052628;28;20231;-55
2022/11/11 08:30:43;;;;;;;21.10;14.60;;;11.20;99.90;;;;;;5052175;28;20247;-55
2022/11/11 08:33:30;;;;;;;21.73;15.27;;;11.20;99.90;;;;;;5051933;28;20228;-55
2022/11/11 08:36:30;;;;;;;20.63;15.13;;;11.20;99.90;;;;;;5047993;28;20393;-54
2022/11/11 08:39:17;;;;;;;23.17;14.87;;;11.30;99.90;;;;;;5072603;28;20226;-56
2022/11/11 08:42:06;;;;;;;20.53;14.57;;;11.30;99.90;;;;;;5072860;28;20319;-55
2022/11/11 08:44:52;;;;;;;20.37;15.27;;;11.30;99.90;;;;;;5052627;28;20247;-54
2022/11/11 08:47:39;;;;;;;19.97;14.93;;;11.30;99.90;;;;;;5052318;28;20240;-55
2022/11/11 08:50:26;;;;;;;20.83;14.73;;;11.30;99.90;;;;;;5052558;28;20263;-55
2022/11/11 08:53:13;;;;;;;22.00;15.60;;;11.30;99.90;;;;;;5052802;28;20259;-55
2022/11/11 08:56:01;;;;;;;21.87;15.27;;;11.30;99.90;;;;;;5052523;28;20239;-55
2022/11/11 08:58:49;;;;;;;23.07;16.00;;;11.40;99.90;;;;;;5052497;28;20232;-55
2022/11/11 09:01:36;;;;;;;20.67;15.53;;;11.40;99.90;;;;;;5052085;28;20604;-55
2022/11/11 09:04:22;;;;;;;23.80;16.70;;;11.40;99.90;;;;;;5056393;28;20827;-54
2022/11/11 09:07:29;;;;;;;21.17;15.90;;;11.40;99.90;;;;;;5052511;28;20377;-54
2022/11/11 09:10:16;;;;;;;20.40;14.90;;;11.50;99.90;;;;;;5057145;28;20243;-56
2022/11/11 09:13:03;;;;;;;20.80;15.07;;;11.50;99.90;;;;;;5057620;28;20671;-55
2022/11/11 09:15:56;;;;;;;19.07;14.87;;;11.50;99.90;;;;;;5057758;28;20240;-55
2022/11/11 09:18:43;;;;;;;17.20;14.53;;;11.60;99.90;;;;;;5052486;28;20240;-54
2022/11/11 09:21:29;;;;;;;21.33;15.30;;;11.60;99.90;;;;;;5061218;28;20249;-56
2022/11/11 09:24:16;;;;;;;22.07;14.70;;;11.70;99.90;;;;;;5061474;28;20228;-56
2022/11/11 09:27:02;;;;;;;17.63;14.07;;;11.70;99.90;;;;;;5058217;28;20307;-56
2022/11/11 09:29:49;;;;;;;20.27;15.27;;;11.70;99.90;;;;;;5061100;28;20318;-55
2022/11/11 09:32:37;;;;;;;18.27;14.13;;;11.80;99.90;;;;;;5047208;28;20231;-55
2022/11/11 09:35:23;;;;;;;17.83;14.20;;;11.80;99.90;;;;;;5047342;28;20244;-54
2022/11/11 09:38:10;;;;;;;17.80;14.43;;;11.80;99.90;;;;;;5050049;28;20264;-55
2022/11/11 09:41:12;;;;;;;18.53;13.87;;;11.90;99.90;;;;;;5059562;28;20363;-55
2022/11/11 09:44:02;;;;;;;21.53;13.60;;;11.90;99.90;;;;;;5058664;28;20250;-55
2022/11/11 09:46:57;;;;;;;17.80;13.80;;;12.00;99.90;;;;;;5056569;28;20348;-56
2022/11/11 09:49:58;;;;;;;21.47;14.73;;;12.00;99.90;;;;;;5060650;28;20856;-54
2022/11/11 09:52:49;;;;;;;17.90;14.97;;;12.00;99.90;;;;;;5060662;28;20240;-55
2022/11/11 09:55:40;;;;;;;18.03;14.20;;;12.00;99.90;;;;;;5059351;28;21011;-57
2022/11/11 09:58:32;;;;;;;21.63;15.10;;;12.10;99.90;;;;;;5056867;28;20244;-55
2022/11/11 10:01:22;;;;;;;20.53;15.57;;;12.10;99.90;;;;;;5061125;28;20283;-56
2022/11/11 10:04:23;;;;;;;21.87;16.17;;;12.00;99.90;;;;;;5058262;28;20618;-57
2022/11/11 10:07:18;;;;;;;21.60;16.30;;;12.10;99.90;;;;;;5057158;28;20833;-56
2022/11/11 10:10:15;;;;;;;22.20;17.40;;;12.10;99.90;;;;;;5057371;28;20233;-56
2022/11/11 10:13:03;;;;;;;22.87;16.63;;;12.20;99.90;;;;;;5059309;28;20244;-56
2022/11/11 10:16:00;;;;;;;26.23;16.80;;;12.20;99.90;;;;;;5057821;28;20585;-55
2022/11/11 10:19:00;;;;;;;20.83;17.10;;;12.10;99.90;;;;;;5053811;28;20308;-55
2022/11/11 10:21:51;;;;;;;21.83;16.47;;;12.10;99.90;;;;;;5056744;28;20384;-57
2022/11/11 10:25:07;;;;;;;21.30;16.70;;;12.20;99.90;;;;;;5061342;28;20266;-55
2022/11/11 10:27:58;;;;;;;19.60;17.23;;;12.20;99.90;;;;;;5057916;28;20236;-56
2022/11/11 10:30:46;;;;;;;23.30;16.80;;;12.20;99.90;;;;;;5059871;28;20731;-55
2022/11/11 10:33:42;;;;;;;21.57;16.87;;;12.30;99.90;;;;;;5059881;28;20244;-55
2022/11/11 10:36:30;;;;;;;22.57;17.00;;;12.20;99.90;;;;;;5061770;28;20233;-56
2022/11/11 10:39:27;;;;;;;21.27;16.47;;;12.30;99.90;;;;;;5060676;28;20235;-56
2022/11/11 10:42:17;;;;;;;18.70;15.30;;;12.30;99.90;;;;;;5055430;28;20249;-56
2022/11/11 10:45:12;;;;;;;21.53;15.67;;;12.40;99.90;;;;;;5056365;28;20244;-56
2022/11/11 10:48:02;;;;;;;19.80;15.70;;;12.50;99.90;;;;;;5052226;28;20612;-55
2022/11/11 10:50:53;;;;;;;19.90;15.67;;;12.40;99.90;;;;;;5058865;28;20345;-55
2022/11/11 10:53:45;;;;;;;20.33;14.83;;;12.50;99.90;;;;;;5058668;28;20604;-55
2022/11/11 10:56:37;;;;;;;18.73;15.30;;;12.50;99.90;;;;;;5057684;28;20378;-57
2022/11/11 10:59:30;;;;;;;20.00;15.30;;;12.50;99.90;;;;;;5055117;28;20735;-56
2022/11/11 11:02:21;;;;;;;19.20;15.33;;;12.50;99.90;;;;;;5055154;28;20245;-56
2022/11/11 11:05:12;;;;;;;20.33;15.53;;;12.50;99.90;;;;;;5055653;28;20758;-55
2022/11/11 11:08:06;;;;;;;18.13;14.87;;;12.40;99.90;;;;;;5053699;28;20318;-55
2022/11/11 11:10:57;;;;;;;17.10;14.33;;;12.40;99.90;;;;;;5057309;28;20244;-56
2022/11/11 11:13:48;;;;;;;16.13;14.07;;;12.40;99.90;;;;;;5056973;28;20228;-55
2022/11/11 11:16:42;;;;;;;20.33;15.10;;;12.40;99.90;;;;;;5055093;28;20237;-56
2022/11/11 11:19:30;;;;;;;21.77;14.30;;;12.40;99.90;;;;;;5057445;28;20237;-55
2022/11/11 11:22:17;;;;;;;16.40;13.73;;;12.40;99.90;;;;;;5057394;28;20236;-55
2022/11/11 11:25:11;;;;;;;18.40;13.83;;;12.50;99.90;;;;;;5059996;28;21358;-56
2022/11/11 11:28:10;;;;;;;19.20;13.70;;;12.50;99.90;;;;;;5056576;28;20247;-56
2022/11/11 11:31:01;;;;;;;19.13;14.73;;;12.50;99.90;;;;;;5058239;28;20237;-55
2022/11/11 11:33:54;;;;;;;15.87;12.90;;;12.60;99.90;;;;;;5058016;28;20248;-57
2022/11/11 11:36:40;;;;;;;16.70;13.50;;;12.50;99.90;;;;;;5057148;28;20236;-56
2022/11/11 11:39:35;;;;;;;18.60;13.57;;;12.60;99.90;;;;;;5052967;28;20232;-56
2022/11/11 11:42:29;;;;;;;16.90;12.87;;;12.60;99.90;;;;;;5052389;28;20253;-57
2022/11/11 11:45:28;;;;;;;18.83;14.20;;;12.60;99.90;;;;;;5053818;28;20228;-56
2022/11/11 11:48:25;;;;;;;24.33;13.43;;;12.60;99.90;;;;;;5058235;28;20244;-55
2022/11/11 11:51:31;;;;;;;17.67;13.33;;;12.60;99.90;;;;;;5060824;28;20355;-58
2022/11/11 11:54:40;;;;;;;17.47;13.53;;;12.60;99.90;;;;;;5060613;28;20241;-54
2022/11/11 11:57:43;;;;;;;19.80;14.77;;;12.60;99.90;;;;;;5058583;28;20225;-54
2022/11/11 12:00:34;;;;;;;17.87;14.33;;;12.70;99.90;;;;;;5059796;28;20395;-55
2022/11/11 12:03:58;;;;;;;18.43;14.73;;;12.70;99.90;;;;;;5061397;28;20750;-54
2022/11/11 12:06:55;;;;;;;18.17;14.10;;;12.60;99.90;;;;;;5056941;28;20237;-55
2022/11/11 12:09:57;;;;;;;18.50;14.83;;;12.60;99.90;;;;;;5059892;28;20233;-56
2022/11/11 12:12:50;;;;;;;20.10;15.00;;;12.60;99.90;;;;;;5057325;28;20284;-54
2022/11/11 12:15:40;;;;;;;20.87;15.43;;;12.60;99.90;;;;;;5060418;28;20848;-55
2022/11/11 12:18:57;;;;;;;20.43;15.60;;;12.60;99.90;;;;;;5057100;28;20603;-55
2022/11/11 12:21:58;;;;;;;23.40;17.03;;;12.60;99.90;;;;;;5055014;28;20235;-56
2022/11/11 12:24:55;;;;;;;17.30;14.47;;;12.60;99.90;;;;;;5055939;28;20339;-54
2022/11/11 12:27:56;;;;;;;19.97;14.83;;;12.70;99.90;;;;;;5057583;28;20275;-57
2022/11/11 12:30:51;;;;;;;18.13;14.50;;;12.70;99.90;;;;;;5058232;28;20252;-55
2022/11/11 12:34:04;;;;;;;17.33;14.67;;;12.60;99.90;;;;;;5059409;28;20228;-54
2022/11/11 12:36:59;;;;;;;18.77;14.77;;;12.50;99.90;;;;;;5056991;28;20235;-56
2022/11/11 12:40:04;;;;;;;19.90;13.80;;;12.50;99.90;;;;;;5058384;28;20371;-56
2022/11/11 12:43:03;;;;;;;17.83;13.40;;;12.50;99.90;;;;;;5058125;28;20758;-55
2022/11/11 12:45:56;;;;;;;16.87;13.43;;;12.50;99.90;;;;;;5058630;28;20739;-55
2022/11/11 12:48:56;;;;;;;16.97;13.20;;;12.40;99.90;;;;;;5050967;28;20737;-55
2022/11/11 12:51:56;;;;;;;15.07;13.00;;;12.50;99.90;;;;;;5062118;28;20286;-54
2022/11/11 12:54:56;;;;;;;18.30;13.00;;;12.40;99.90;;;;;;5061606;28;20232;-55
2022/11/11 12:57:57;;;;;;;14.33;12.27;;;12.40;99.90;;;;;;5060654;28;20232;-56
2022/11/11 13:00:54;;;;;;;16.57;11.90;;;12.40;99.90;;;;;;5061917;28;20452;-56
2022/11/11 13:03:59;;;;;;;15.47;11.53;;;12.40;99.90;;;;;;5062665;28;20253;-56
2022/11/11 13:07:02;;;;;;;15.13;11.80;;;12.30;99.90;;;;;;5055919;28;20247;-56
2022/11/11 13:10:13;;;;;;;14.77;11.17;;;12.30;99.90;;;;;;5059462;28;20368;-55
2022/11/11 13:13:13;;;;;;;15.40;11.63;;;12.40;99.90;;;;;;5056062;28;20236;-55
2022/11/11 13:15:59;;;;;;;15.87;11.27;;;12.30;99.90;;;;;;5060759;28;20244;-56
2022/11/11 13:18:52;;;;;;;13.47;10.70;;;12.40;99.90;;;;;;5058553;28;20286;-55
2022/11/11 13:21:48;;;;;;;13.23;10.87;;;12.30;99.90;;;;;;5061785;28;20246;-56
2022/11/11 13:24:35;;;;;;;12.47;10.17;;;12.40;99.90;;;;;;5061127;28;20312;-56
2022/11/11 13:27:33;;;;;;;14.83;11.00;;;12.40;99.90;;;;;;5057197;28;20233;-56
2022/11/11 13:30:44;;;;;;;12.73;10.53;;;12.40;99.90;;;;;;5055751;28;20839;-56
2022/11/11 13:33:39;;;;;;;14.03;11.23;;;12.40;99.90;;;;;;5062030;28;20609;-56
2022/11/11 13:36:27;;;;;;;14.57;11.83;;;12.40;99.90;;;;;;5061158;28;20727;-56
2022/11/11 13:39:26;;;;;;;12.57;10.87;;;12.40;99.90;;;;;;5059767;28;20303;-57
2022/11/11 13:42:22;;;;;;;12.80;10.20;;;12.40;99.90;;;;;;5062146;28;20240;-56
2022/11/11 13:45:24;;;;;;;11.83;9.63;;;12.40;99.90;;;;;;5063186;28;20303;-56
2022/11/11 13:48:21;;;;;;;13.47;10.27;;;12.30;99.90;;;;;;5056077;28;20289;-56
2022/11/11 13:51:19;;;;;;;14.03;10.30;;;12.30;99.90;;;;;;5059925;28;20229;-55
2022/11/11 13:54:20;;;;;;;10.73;9.27;;;12.30;99.90;;;;;;5058606;28;20967;-56
2022/11/11 13:57:16;;;;;;;11.87;9.80;;;12.40;99.90;;;;;;5057773;28;20267;-55
2022/11/11 14:00:06;;;;;;;12.87;9.73;;;12.50;99.90;;;;;;5058873;28;20898;-57
2022/11/11 14:03:28;;;;;;;12.10;8.77;;;12.40;99.90;;;;;;5056857;28;20783;-57
2022/11/11 14:06:37;;;;;;;14.20;9.43;;;12.40;99.90;;;;;;5062393;28;20310;-57
2022/11/11 14:09:53;;;;;;;13.20;9.80;;;12.50;99.90;;;;;;5062340;28;20942;-54
2022/11/11 14:12:41;;;;;;;13.53;9.77;;;12.50;99.90;;;;;;5060874;28;20368;-56
2022/11/11 14:15:37;;;;;;;11.73;9.00;;;12.50;99.90;;;;;;5062216;28;20240;-55
2022/11/11 14:18:38;;;;;;;12.57;9.67;;;12.50;99.90;;;;;;5057451;28;20276;-54
2022/11/11 14:21:53;;;;;;;12.60;8.90;;;12.50;99.90;;;;;;5061287;28;20579;-55
2022/11/11 14:24:46;;;;;;;12.47;9.13;;;12.50;99.90;;;;;;5036829;28;20245;-56
2022/11/11 14:27:34;;;;;;;13.00;9.10;;;12.50;99.90;;;;;;5057918;28;20253;-55
2022/11/11 14:30:38;;;;;;;11.87;9.33;;;12.50;99.90;;;;;;5060944;28;20265;-55
2022/11/11 14:33:39;;;;;;;12.07;9.30;;;12.50;99.90;;;;;;5064069;28;20791;-55
2022/11/11 14:36:33;;;;;;;12.87;10.10;;;12.50;99.90;;;;;;5049104;28;20337;-56
2022/11/11 14:39:32;;;;;;;15.13;11.15;;;12.50;99.90;;;;;;5073691;28;20492;-54
2022/11/11 14:42:45;;;;;;;11.63;8.97;;;12.50;99.90;;;;;;5074790;28;20241;-54
2022/11/11 14:46:02;;;;;;;12.30;9.10;;;12.50;99.90;;;;;;5054467;28;20308;-54
2022/11/11 14:49:01;;;;;;;12.80;9.17;;;12.50;99.90;;;;;;5050694;28;20230;-53
2022/11/11 14:51:54;;;;;;;12.87;9.00;;;12.50;99.90;;;;;;5053755;28;20241;-55
2022/11/11 14:54:56;;;;;;;11.43;9.47;;;12.50;99.90;;;;;;5051941;28;20352;-54
2022/11/11 14:57:48;;;;;;;13.05;10.15;;;12.50;99.90;;;;;;5053618;28;20549;-57
2022/11/11 15:00:46;;;;;;;10.77;8.97;;;12.50;99.90;;;;;;5053917;28;20270;-52
2022/11/11 15:03:37;;;;;;;12.67;9.83;;;12.60;99.90;;;;;;5054227;28;20232;-54
2022/11/11 15:06:31;;;;;;;14.30;9.47;;;12.60;99.90;;;;;;5054395;28;20275;-54
2022/11/11 15:09:45;;;;;;;11.83;8.77;;;12.60;99.90;;;;;;5054492;28;20230;-54
2022/11/11 15:12:48;;;;;;;10.63;8.73;;;12.60;99.90;;;;;;5054625;28;20328;-53
2022/11/11 15:15:41;;;;;;;11.13;8.53;;;12.50;99.90;;;;;;5053574;28;20278;-56
2022/11/11 15:19:12;;;;;;;11.60;9.60;;;12.60;99.90;;;;;;5060853;28;20229;-55
2022/11/11 15:22:10;;;;;;;11.07;9.00;;;12.50;99.90;;;;;;5053838;28;20596;-56
2022/11/11 15:25:07;;;;;;;10.40;9.30;;;12.50;99.90;;;;;;5053691;28;20237;-55
2022/11/11 15:27:56;;;;;;;11.40;9.33;;;12.40;99.90;;;;;;5054022;28;20689;-56
2022/11/11 15:31:00;;;;;;;11.17;9.37;;;12.50;99.90;;;;;;5052992;28;20240;-56
2022/11/11 15:33:56;;;;;;;11.50;10.33;;;12.40;99.90;;;;;;5053642;28;20237;-56
2022/11/11 15:36:55;;;;;;;10.80;8.53;;;12.40;99.90;;;;;;5056273;28;20233;-55
2022/11/11 15:39:46;;;;;;;12.77;8.93;;;12.40;99.90;;;;;;5073281;28;20244;-56
2022/11/11 15:42:37;;;;;;;11.23;9.47;;;12.40;99.90;;;;;;5060200;28;20233;-55
2022/11/11 15:45:28;;;;;;;10.17;8.90;;;12.30;99.90;;;;;;5054689;28;20229;-56
2022/11/11 15:48:19;;;;;;;11.30;9.07;;;12.40;99.90;;;;;;5050875;28;20225;-55
2022/11/11 15:51:16;;;;;;;11.70;8.93;;;12.40;99.90;;;;;;5053133;28;20295;-56
2022/11/11 15:54:22;;;;;;;12.30;9.10;;;12.30;99.90;;;;;;5053654;28;20225;-56
2022/11/11 15:57:27;;;;;;;12.37;10.00;;;12.30;99.90;;;;;;5033274;28;20239;-55
2022/11/11 16:00:28;;;;;;;17.47;11.53;;;12.40;99.90;;;;;;5045836;28;20585;-55